CYVM/YVM METAR and TAF weather

Enter ICAO airport designator
Station Type Date Time Source
CYVM METAR 2019/02/20 07:00 UTC NOAA

CYVM 200700Z AUTO 24003KT 200V280 9SM CLR M24/M29 A2951 RMK SLP995


Station Type Date Time Source
CYVM Decoded METAR 2019/02/20 07:00 UTC NOAA

Broughton Island Airport, Canada (CYVM) 67-33N 064-02W
Feb 20, 2019 - 02:00 AM EST / 2019.02.20 0700 UTC
Wind: from the WSW (240 degrees) at 3 MPH (3 KT) (direction variable):0
Visibility: 9 mile(s):0
Sky conditions: clear
Temperature: -11 F (-24 C)
Dew Point: -20 F (-29 C)
Relative Humidity: 63%
Pressure (altimeter): 29.51 in. Hg (999 hPa)
ob: CYVM 200700Z AUTO 24003KT 200V280 9SM CLR M24/M29 A2951 RMK SLP995
cycle: 7

Station Type Date Time Source
CYVM TAF 2019/02/20 07:39 UTC NOAA

TAF TAF CYVM 200638Z 2007/2019 34010KT P6SM FEW070
TEMPO 2007/2019 5SM IC
RMK FCST BASED ON AUTO OBS. NXT FCST BY 201300Z


Example: see airport list